sensor_id;sensor_type;location;lat;lon;timestamp;pressure;altitude;pressure_sealevel;temperature;humidity
7748;BME280;3918;42.564;23.164;2024-03-08T05:03:18;-11650.84;;;-142.29;100.00
7748;BME280;3918;42.564;23.164;2024-03-08T05:05:44;-11650.84;;;-142.29;100.00
7748;BME280;3918;42.564;23.164;2024-03-08T05:08:11;-11650.84;;;-142.29;100.00
7748;BME280;3918;42.564;23.164;2024-03-08T05:10:38;-11650.84;;;-142.29;100.00
7748;BME280;3918;42.564;23.164;2024-03-08T05:13:05;-11650.84;;;-142.29;100.00
7748;BME280;3918;42.564;23.164;2024-03-08T05:15:31;-11650.84;;;-142.29;100.00
7748;BME280;3918;42.564;23.164;2024-03-08T05:18:00;-11650.84;;;-142.29;100.00
7748;BME280;3918;42.564;23.164;2024-03-08T05:20:28;-11650.84;;;-142.29;100.00
7748;BME280;3918;42.564;23.164;2024-03-08T05:22:56;-11650.84;;;-142.29;100.00
7748;BME280;3918;42.564;23.164;2024-03-08T05:25:24;-11650.84;;;-142.29;100.00
7748;BME280;3918;42.564;23.164;2024-03-08T05:27:51;-11650.84;;;-142.29;100.00
7748;BME280;3918;42.564;23.164;2024-03-08T05:30:18;-11650.84;;;-142.29;100.00
7748;BME280;3918;42.564;23.164;2024-03-08T05:32:47;-11650.84;;;-142.29;100.00
7748;BME280;3918;42.564;23.164;2024-03-08T05:35:13;-11650.84;;;-142.29;100.00
7748;BME280;3918;42.564;23.164;2024-03-08T05:37:43;-11650.84;;;-142.29;100.00
7748;BME280;3918;42.564;23.164;2024-03-08T05:40:10;-11650.84;;;-142.29;100.00
7748;BME280;3918;42.564;23.164;2024-03-08T05:42:37;-11650.84;;;-142.29;100.00
7748;BME280;3918;42.564;23.164;2024-03-08T05:45:04;-11650.84;;;-142.29;100.00
7748;BME280;3918;42.564;23.164;2024-03-08T05:47:32;-11650.84;;;-142.29;100.00
7748;BME280;3918;42.564;23.164;2024-03-08T05:49:59;-11650.84;;;-142.29;100.00
7748;BME280;3918;42.564;23.164;2024-03-08T05:52:27;-11650.84;;;-142.29;100.00
7748;BME280;3918;42.564;23.164;2024-03-08T05:54:55;-11650.84;;;-142.29;100.00
7748;BME280;3918;42.564;23.164;2024-03-08T05:57:21;-11650.84;;;-142.29;100.00
7748;BME280;3918;42.564;23.164;2024-03-08T05:59:49;-11650.84;;;-142.29;100.00
7748;BME280;3918;42.564;23.164;2024-03-08T06:02:16;-11650.84;;;-142.29;100.00
7748;BME280;3918;42.564;23.164;2024-03-08T06:04:45;-11650.84;;;-142.29;100.00
7748;BME280;3918;42.564;23.164;2024-03-08T06:07:12;-11650.84;;;-142.29;100.00
7748;BME280;3918;42.564;23.164;2024-03-08T06:09:39;-11650.84;;;-142.29;100.00
7748;BME280;3918;42.564;23.164;2024-03-08T06:12:07;-11650.84;;;-142.29;100.00
7748;BME280;3918;42.564;23.164;2024-03-08T06:14:36;-11650.84;;;-142.29;100.00
7748;BME280;3918;42.564;23.164;2024-03-08T06:17:03;-11650.84;;;-142.29;100.00
7748;BME280;3918;42.564;23.164;2024-03-08T06:19:32;-11650.84;;;-142.29;100.00
7748;BME280;3918;42.564;23.164;2024-03-08T06:21:59;-11650.84;;;-142.29;100.00
7748;BME280;3918;42.564;23.164;2024-03-08T06:24:28;-11650.84;;;-142.29;100.00
7748;BME280;3918;42.564;23.164;2024-03-08T06:26:54;-11650.84;;;-142.29;100.00
7748;BME280;3918;42.564;23.164;2024-03-08T06:29:22;-11650.84;;;-142.29;100.00
7748;BME280;3918;42.564;23.164;2024-03-08T06:31:49;-11650.84;;;-142.29;100.00
7748;BME280;3918;42.564;23.164;2024-03-08T06:34:16;-11650.84;;;-142.29;100.00
7748;BME280;3918;42.564;23.164;2024-03-08T06:36:43;-11650.84;;;-142.29;100.00
7748;BME280;3918;42.564;23.164;2024-03-08T06:39:10;-11650.84;;;-142.29;100.00
7748;BME280;3918;42.564;23.164;2024-03-08T06:41:36;-11650.84;;;-142.29;100.00
7748;BME280;3918;42.564;23.164;2024-03-08T06:44:03;-11650.84;;;-142.29;100.00
7748;BME280;3918;42.564;23.164;2024-03-08T06:46:32;-11650.84;;;-142.29;100.00
7748;BME280;3918;42.564;23.164;2024-03-08T06:49:00;-11650.84;;;-142.29;100.00
7748;BME280;3918;42.564;23.164;2024-03-08T06:51:28;-11650.84;;;-142.29;100.00
7748;BME280;3918;42.564;23.164;2024-03-08T06:53:56;-11650.84;;;-142.29;100.00
7748;BME280;3918;42.564;23.164;2024-03-08T06:56:22;-11650.84;;;-142.29;100.00
7748;BME280;3918;42.564;23.164;2024-03-08T06:58:50;-11650.84;;;-142.29;100.00
7748;BME280;3918;42.564;23.164;2024-03-08T07:01:17;-11650.84;;;-142.29;100.00
7748;BME280;3918;42.564;23.164;2024-03-08T07:03:45;-11650.84;;;-142.29;100.00
7748;BME280;3918;42.564;23.164;2024-03-08T07:06:13;-11650.84;;;-142.29;100.00
7748;BME280;3918;42.564;23.164;2024-03-08T07:08:40;-11650.84;;;-142.29;100.00
7748;BME280;3918;42.564;23.164;2024-03-08T07:11:06;-11650.84;;;-142.29;100.00
7748;BME280;3918;42.564;23.164;2024-03-08T07:13:33;-11650.84;;;-142.29;100.00
7748;BME280;3918;42.564;23.164;2024-03-08T07:16:00;-11650.84;;;-142.29;100.00
7748;BME280;3918;42.564;23.164;2024-03-08T07:18:27;-11650.84;;;-142.29;100.00
7748;BME280;3918;42.564;23.164;2024-03-08T07:20:56;-11650.84;;;-142.29;100.00
7748;BME280;3918;42.564;23.164;2024-03-08T07:23:23;-11650.84;;;-142.29;100.00
7748;BME280;3918;42.564;23.164;2024-03-08T07:26:07;-11650.84;;;-142.29;100.00
7748;BME280;3918;42.564;23.164;2024-03-08T07:28:34;-11650.84;;;-142.29;100.00
7748;BME280;3918;42.564;23.164;2024-03-08T07:31:00;-11650.84;;;-142.29;100.00
7748;BME280;3918;42.564;23.164;2024-03-08T07:33:42;-11650.84;;;-142.29;100.00
7748;BME280;3918;42.564;23.164;2024-03-08T07:36:11;-11650.84;;;-142.29;100.00
7748;BME280;3918;42.564;23.164;2024-03-08T07:38:37;-11650.84;;;-142.29;100.00
7748;BME280;3918;42.564;23.164;2024-03-08T07:41:04;-11650.84;;;-142.29;100.00
7748;BME280;3918;42.564;23.164;2024-03-08T07:43:31;-11650.84;;;-142.29;100.00
7748;BME280;3918;42.564;23.164;2024-03-08T07:45:58;-11650.84;;;-142.29;100.00
7748;BME280;3918;42.564;23.164;2024-03-08T07:48:24;-11650.84;;;-142.29;100.00
7748;BME280;3918;42.564;23.164;2024-03-08T07:50:52;-11650.84;;;-142.29;100.00
7748;BME280;3918;42.564;23.164;2024-03-08T07:53:20;-11650.84;;;-142.29;100.00
7748;BME280;3918;42.564;23.164;2024-03-08T07:55:47;-11650.84;;;-142.29;100.00
7748;BME280;3918;42.564;23.164;2024-03-08T07:58:14;-11650.84;;;-142.29;100.00
7748;BME280;3918;42.564;23.164;2024-03-08T08:00:40;-11650.84;;;-142.29;100.00
7748;BME280;3918;42.564;23.164;2024-03-08T08:03:08;-11650.84;;;-142.29;100.00
7748;BME280;3918;42.564;23.164;2024-03-08T08:05:35;-11650.84;;;-142.29;100.00
7748;BME280;3918;42.564;23.164;2024-03-08T08:08:04;-11650.84;;;-142.29;100.00
7748;BME280;3918;42.564;23.164;2024-03-08T08:10:33;-11650.84;;;-142.29;100.00
7748;BME280;3918;42.564;23.164;2024-03-08T08:13:00;-11650.84;;;-142.29;100.00
7748;BME280;3918;42.564;23.164;2024-03-08T08:15:26;-11650.84;;;-142.29;100.00
7748;BME280;3918;42.564;23.164;2024-03-08T08:17:54;-11650.84;;;-142.29;100.00
7748;BME280;3918;42.564;23.164;2024-03-08T08:20:21;-11650.84;;;-142.29;100.00
7748;BME280;3918;42.564;23.164;2024-03-08T08:22:48;-11650.84;;;-142.29;100.00
7748;BME280;3918;42.564;23.164;2024-03-08T08:25:15;-11650.84;;;-142.29;100.00
7748;BME280;3918;42.564;23.164;2024-03-08T08:27:47;-11650.84;;;-142.29;100.00
7748;BME280;3918;42.564;23.164;2024-03-08T08:30:14;-11650.84;;;-142.29;100.00
7748;BME280;3918;42.564;23.164;2024-03-08T08:32:40;-11650.84;;;-142.29;100.00
7748;BME280;3918;42.564;23.164;2024-03-08T08:35:08;-11650.84;;;-142.29;100.00
7748;BME280;3918;42.564;23.164;2024-03-08T08:37:38;-11650.84;;;-142.29;100.00
7748;BME280;3918;42.564;23.164;2024-03-08T08:40:06;-11650.84;;;-142.29;100.00
7748;BME280;3918;42.564;23.164;2024-03-08T08:42:36;-11650.84;;;-142.29;100.00
7748;BME280;3918;42.564;23.164;2024-03-08T08:45:05;-11650.84;;;-142.29;100.00
7748;BME280;3918;42.564;23.164;2024-03-08T08:47:34;-11650.84;;;-142.29;100.00
7748;BME280;3918;42.564;23.164;2024-03-08T08:50:00;-11650.84;;;-142.29;100.00
7748;BME280;3918;42.564;23.164;2024-03-08T08:52:29;-11650.84;;;-142.29;100.00
7748;BME280;3918;42.564;23.164;2024-03-08T08:54:56;-11650.84;;;-142.29;100.00
7748;BME280;3918;42.564;23.164;2024-03-08T08:57:23;-11650.84;;;-142.29;100.00
7748;BME280;3918;42.564;23.164;2024-03-08T08:59:49;-11650.84;;;-142.29;100.00
7748;BME280;3918;42.564;23.164;2024-03-08T09:02:18;-11650.84;;;-142.29;100.00
7748;BME280;3918;42.564;23.164;2024-03-08T09:04:46;-11650.84;;;-142.29;100.00
7748;BME280;3918;42.564;23.164;2024-03-08T09:07:13;-11650.84;;;-142.29;100.00
7748;BME280;3918;42.564;23.164;2024-03-08T09:09:42;-11650.84;;;-142.29;100.00
7748;BME280;3918;42.564;23.164;2024-03-08T09:12:08;-11650.84;;;-142.29;100.00
7748;BME280;3918;42.564;23.164;2024-03-08T09:14:40;-11650.84;;;-142.29;100.00
7748;BME280;3918;42.564;23.164;2024-03-08T09:17:07;-11650.84;;;-142.29;100.00
7748;BME280;3918;42.564;23.164;2024-03-08T09:19:35;-11650.84;;;-142.29;100.00
7748;BME280;3918;42.564;23.164;2024-03-08T09:22:03;-11650.84;;;-142.29;100.00
7748;BME280;3918;42.564;23.164;2024-03-08T09:24:30;-11650.84;;;-142.29;100.00
7748;BME280;3918;42.564;23.164;2024-03-08T09:26:57;-11650.84;;;-142.29;100.00
7748;BME280;3918;42.564;23.164;2024-03-08T09:29:25;-11650.84;;;-142.29;100.00
7748;BME280;3918;42.564;23.164;2024-03-08T09:31:52;-11650.84;;;-142.29;100.00
7748;BME280;3918;42.564;23.164;2024-03-08T09:34:19;-11650.84;;;-142.29;100.00
7748;BME280;3918;42.564;23.164;2024-03-08T09:36:47;-11650.84;;;-142.29;100.00
7748;BME280;3918;42.564;23.164;2024-03-08T09:39:14;-11650.84;;;-142.29;100.00
7748;BME280;3918;42.564;23.164;2024-03-08T09:41:42;-11650.84;;;-142.29;100.00
7748;BME280;3918;42.564;23.164;2024-03-08T09:44:10;-11650.84;;;-142.29;100.00
7748;BME280;3918;42.564;23.164;2024-03-08T09:46:37;-11650.84;;;-142.29;100.00
7748;BME280;3918;42.564;23.164;2024-03-08T09:49:04;-11650.84;;;-142.29;100.00
7748;BME280;3918;42.564;23.164;2024-03-08T09:51:33;-11650.84;;;-142.29;100.00
7748;BME280;3918;42.564;23.164;2024-03-08T09:54:05;-11650.84;;;-142.29;100.00
7748;BME280;3918;42.564;23.164;2024-03-08T09:56:32;-11650.84;;;-142.29;100.00
7748;BME280;3918;42.564;23.164;2024-03-08T09:58:59;-11650.84;;;-142.29;100.00
7748;BME280;3918;42.564;23.164;2024-03-08T10:02:07;-11650.84;;;-142.29;100.00
7748;BME280;3918;42.564;23.164;2024-03-08T10:04:40;-11650.84;;;-142.29;100.00
7748;BME280;3918;42.564;23.164;2024-03-08T10:07:07;-11650.84;;;-142.29;100.00
7748;BME280;3918;42.564;23.164;2024-03-08T10:09:35;-11650.84;;;-142.29;100.00
7748;BME280;3918;42.564;23.164;2024-03-08T10:12:05;-11650.84;;;-142.29;100.00
7748;BME280;3918;42.564;23.164;2024-03-08T10:14:33;-11650.84;;;-142.29;98.92
7748;BME280;3918;42.564;23.164;2024-03-08T10:17:00;-11650.84;;;-142.29;100.00
7748;BME280;3918;42.564;23.164;2024-03-08T10:19:27;-11650.84;;;-142.29;100.00
7748;BME280;3918;42.564;23.164;2024-03-08T10:21:55;-11650.84;;;-142.29;100.00
7748;BME280;3918;42.564;23.164;2024-03-08T10:24:24;-11650.84;;;-142.29;100.00
7748;BME280;3918;42.564;23.164;2024-03-08T10:26:53;-11650.84;;;-142.29;100.00
7748;BME280;3918;42.564;23.164;2024-03-08T10:29:20;-11650.84;;;-142.29;100.00
7748;BME280;3918;42.564;23.164;2024-03-08T10:31:47;-11650.84;;;-142.29;100.00
7748;BME280;3918;42.564;23.164;2024-03-08T10:34:15;-11650.84;;;-142.29;100.00
7748;BME280;3918;42.564;23.164;2024-03-08T10:36:42;-11650.84;;;-142.29;100.00
7748;BME280;3918;42.564;23.164;2024-03-08T10:39:19;-11650.84;;;-142.29;100.00
7748;BME280;3918;42.564;23.164;2024-03-08T10:41:55;-11650.84;;;-142.29;100.00
7748;BME280;3918;42.564;23.164;2024-03-08T10:44:40;-11650.84;;;-142.29;100.00
7748;BME280;3918;42.564;23.164;2024-03-08T10:47:17;-11650.84;;;-142.29;100.00
7748;BME280;3918;42.564;23.164;2024-03-08T10:49:54;-11650.84;;;-142.29;100.00
7748;BME280;3918;42.564;23.164;2024-03-08T10:52:21;-11650.84;;;-142.29;100.00
7748;BME280;3918;42.564;23.164;2024-03-08T10:54:48;-11650.84;;;-142.29;100.00
7748;BME280;3918;42.564;23.164;2024-03-08T10:57:18;-11650.84;;;-142.29;100.00
7748;BME280;3918;42.564;23.164;2024-03-08T10:59:47;-11650.84;;;-142.29;92.94
7748;BME280;3918;42.564;23.164;2024-03-08T11:02:16;-11650.84;;;-142.29;99.53
7748;BME280;3918;42.564;23.164;2024-03-08T11:04:46;-11650.84;;;-142.29;100.00
7748;BME280;3918;42.564;23.164;2024-03-08T11:07:14;-11650.84;;;-142.29;100.00
7748;BME280;3918;42.564;23.164;2024-03-08T11:09:44;-11650.84;;;-142.29;100.00
7748;BME280;3918;42.564;23.164;2024-03-08T11:12:22;-11650.84;;;-142.29;100.00
7748;BME280;3918;42.564;23.164;2024-03-08T11:14:52;-11650.84;;;-142.29;100.00
7748;BME280;3918;42.564;23.164;2024-03-08T11:17:42;-11650.84;;;-142.29;100.00
7748;BME280;3918;42.564;23.164;2024-03-08T11:20:12;-11650.84;;;-142.29;100.00
7748;BME280;3918;42.564;23.164;2024-03-08T11:22:42;-11650.84;;;-142.29;100.00
7748;BME280;3918;42.564;23.164;2024-03-08T11:25:32;-11650.84;;;-142.29;93.71
7748;BME280;3918;42.564;23.164;2024-03-08T11:28:14;-11650.84;;;-142.29;89.47
7748;BME280;3918;42.564;23.164;2024-03-08T11:30:44;-11650.84;;;-142.29;88.99
7748;BME280;3918;42.564;23.164;2024-03-08T11:33:12;-11650.84;;;-142.29;98.27
7748;BME280;3918;42.564;23.164;2024-03-08T11:35:40;-11650.84;;;-142.29;90.80
7748;BME280;3918;42.564;23.164;2024-03-08T11:38:11;-11650.84;;;-142.29;89.50
7748;BME280;3918;42.564;23.164;2024-03-08T11:40:39;-11650.84;;;-142.29;83.02
7748;BME280;3918;42.564;23.164;2024-03-08T11:43:07;-11650.84;;;-142.29;80.83
7748;BME280;3918;42.564;23.164;2024-03-08T11:45:35;-11650.84;;;-142.29;78.36
7748;BME280;3918;42.564;23.164;2024-03-08T11:48:03;-11650.84;;;-142.29;81.67
7748;BME280;3918;42.564;23.164;2024-03-08T11:50:30;-11650.84;;;-142.29;84.31
7748;BME280;3918;42.564;23.164;2024-03-08T11:53:05;-11650.84;;;-142.29;83.92
7748;BME280;3918;42.564;23.164;2024-03-08T11:55:32;-11650.84;;;-142.29;83.45
7748;BME280;3918;42.564;23.164;2024-03-08T11:58:04;-11650.84;;;-142.29;85.05
7748;BME280;3918;42.564;23.164;2024-03-08T12:00:33;-11650.84;;;-142.29;82.54
7748;BME280;3918;42.564;23.164;2024-03-08T12:03:06;-11650.84;;;-142.29;84.75
7748;BME280;3918;42.564;23.164;2024-03-08T12:05:35;-11650.84;;;-142.29;89.48
7748;BME280;3918;42.564;23.164;2024-03-08T12:08:04;-11650.84;;;-142.29;78.01
7748;BME280;3918;42.564;23.164;2024-03-08T12:10:34;-11650.84;;;-142.29;83.96
7748;BME280;3918;42.564;23.164;2024-03-08T12:13:02;-11650.84;;;-142.29;88.89
7748;BME280;3918;42.564;23.164;2024-03-08T12:15:29;-11650.84;;;-142.29;84.96
7748;BME280;3918;42.564;23.164;2024-03-08T12:17:59;-11650.84;;;-142.29;83.79
7748;BME280;3918;42.564;23.164;2024-03-08T12:20:28;-11650.84;;;-142.29;83.33
7748;BME280;3918;42.564;23.164;2024-03-08T12:22:57;-11650.84;;;-142.29;80.82
7748;BME280;3918;42.564;23.164;2024-03-08T12:25:26;-11650.84;;;-142.29;86.06
7748;BME280;3918;42.564;23.164;2024-03-08T12:27:56;-11650.84;;;-142.29;83.98
7748;BME280;3918;42.564;23.164;2024-03-08T12:30:24;-11650.84;;;-142.29;79.57
7748;BME280;3918;42.564;23.164;2024-03-08T12:32:54;-11650.84;;;-142.29;75.79
7748;BME280;3918;42.564;23.164;2024-03-08T12:35:23;-11650.84;;;-142.29;81.76
7748;BME280;3918;42.564;23.164;2024-03-08T12:37:53;-11650.84;;;-142.29;89.09
7748;BME280;3918;42.564;23.164;2024-03-08T12:40:26;-11650.84;;;-142.29;77.69
7748;BME280;3918;42.564;23.164;2024-03-08T12:42:53;-11650.84;;;-142.29;77.64
7748;BME280;3918;42.564;23.164;2024-03-08T12:45:20;-11650.84;;;-142.29;78.35
7748;BME280;3918;42.564;23.164;2024-03-08T12:47:49;-11650.84;;;-142.29;66.79
7748;BME280;3918;42.564;23.164;2024-03-08T12:50:16;-11650.84;;;-142.29;65.06
7748;BME280;3918;42.564;23.164;2024-03-08T12:52:43;-11650.84;;;-142.29;64.55
7748;BME280;3918;42.564;23.164;2024-03-08T12:55:12;-11650.84;;;-142.29;73.46
7748;BME280;3918;42.564;23.164;2024-03-08T12:57:39;-11650.84;;;-142.29;65.06
7748;BME280;3918;42.564;23.164;2024-03-08T13:00:07;-11650.84;;;-142.29;61.22
7748;BME280;3918;42.564;23.164;2024-03-08T13:02:39;-11650.84;;;-142.29;63.78
7748;BME280;3918;42.564;23.164;2024-03-08T13:05:06;-11650.84;;;-142.29;58.69
7748;BME280;3918;42.564;23.164;2024-03-08T13:07:35;-11650.84;;;-142.29;62.16
7748;BME280;3918;42.564;23.164;2024-03-08T13:10:03;-11650.84;;;-142.29;63.75
7748;BME280;3918;42.564;23.164;2024-03-08T13:12:31;-11650.84;;;-142.29;59.77
7748;BME280;3918;42.564;23.164;2024-03-08T13:14:58;-11650.84;;;-142.29;61.31
7748;BME280;3918;42.564;23.164;2024-03-08T13:17:25;-11650.84;;;-142.29;54.54
7748;BME280;3918;42.564;23.164;2024-03-08T13:19:52;-11650.84;;;-142.29;57.49
7748;BME280;3918;42.564;23.164;2024-03-08T13:22:22;-11650.84;;;-142.29;57.58
7748;BME280;3918;42.564;23.164;2024-03-08T13:24:50;-11650.84;;;-142.29;62.63
7748;BME280;3918;42.564;23.164;2024-03-08T13:27:17;-11650.84;;;-142.29;58.67
7748;BME280;3918;42.564;23.164;2024-03-08T13:29:50;-11650.84;;;-142.29;62.78
7748;BME280;3918;42.564;23.164;2024-03-08T13:32:16;-11650.84;;;-142.29;56.00
7748;BME280;3918;42.564;23.164;2024-03-08T13:34:46;-11650.84;;;-142.29;53.27
7748;BME280;3918;42.564;23.164;2024-03-08T13:37:13;-11650.84;;;-142.29;50.49
7748;BME280;3918;42.564;23.164;2024-03-08T13:39:41;-11650.84;;;-142.29;57.67
7748;BME280;3918;42.564;23.164;2024-03-08T13:42:10;-11650.84;;;-142.29;58.69
7748;BME280;3918;42.564;23.164;2024-03-08T13:44:39;-11650.84;;;-142.29;56.95
7748;BME280;3918;42.564;23.164;2024-03-08T13:47:08;-11650.84;;;-142.29;59.42
7748;BME280;3918;42.564;23.164;2024-03-08T13:49:37;-11650.84;;;-142.29;56.92
7748;BME280;3918;42.564;23.164;2024-03-08T13:52:04;-11650.84;;;-142.29;51.59
7748;BME280;3918;42.564;23.164;2024-03-08T13:54:31;-11650.84;;;-142.29;53.18
7748;BME280;3918;42.564;23.164;2024-03-08T13:56:58;-11650.84;;;-142.29;53.71
7748;BME280;3918;42.564;23.164;2024-03-08T13:59:25;-11650.84;;;-142.29;55.02
7748;BME280;3918;42.564;23.164;2024-03-08T14:01:55;-11650.84;;;-142.29;56.44
7748;BME280;3918;42.564;23.164;2024-03-08T14:04:24;-11650.84;;;-142.29;54.47
7748;BME280;3918;42.564;23.164;2024-03-08T14:06:52;-11650.84;;;-142.29;50.27
7748;BME280;3918;42.564;23.164;2024-03-08T14:09:23;-11650.84;;;-142.29;55.32
7748;BME280;3918;42.564;23.164;2024-03-08T14:11:50;-11650.84;;;-142.29;58.26
7748;BME280;3918;42.564;23.164;2024-03-08T14:14:20;-11650.84;;;-142.29;67.14
7748;BME280;3918;42.564;23.164;2024-03-08T14:16:48;-11650.84;;;-142.29;67.29
7748;BME280;3918;42.564;23.164;2024-03-08T14:19:18;-11650.84;;;-142.29;70.02
7748;BME280;3918;42.564;23.164;2024-03-08T14:21:46;-11650.84;;;-142.29;68.11
7748;BME280;3918;42.564;23.164;2024-03-08T14:24:14;-11650.84;;;-142.29;72.44
7748;BME280;3918;42.564;23.164;2024-03-08T14:26:41;-11650.84;;;-142.29;75.71
7748;BME280;3918;42.564;23.164;2024-03-08T14:29:08;-11650.84;;;-142.29;78.95
7748;BME280;3918;42.564;23.164;2024-03-08T14:31:36;-11650.84;;;-142.29;78.86
7748;BME280;3918;42.564;23.164;2024-03-08T14:34:03;-11650.84;;;-142.29;76.50
7748;BME280;3918;42.564;23.164;2024-03-08T14:36:30;-11650.84;;;-142.29;73.83
7748;BME280;3918;42.564;23.164;2024-03-08T14:38:58;-11650.84;;;-142.29;76.20
7748;BME280;3918;42.564;23.164;2024-03-08T14:41:25;-11650.84;;;-142.29;73.83
7748;BME280;3918;42.564;23.164;2024-03-08T14:43:52;-11650.84;;;-142.29;80.22
7748;BME280;3918;42.564;23.164;2024-03-08T14:46:19;-11650.84;;;-142.29;90.83
7748;BME280;3918;42.564;23.164;2024-03-08T14:48:48;-11650.84;;;-142.29;87.22
7748;BME280;3918;42.564;23.164;2024-03-08T14:51:16;-11650.84;;;-142.29;81.48
7748;BME280;3918;42.564;23.164;2024-03-08T14:53:45;-11650.84;;;-142.29;87.09
7748;BME280;3918;42.564;23.164;2024-03-08T14:56:13;-11650.84;;;-142.29;91.38
7748;BME280;3918;42.564;23.164;2024-03-08T14:58:41;-11650.84;;;-142.29;96.41
7748;BME280;3918;42.564;23.164;2024-03-08T15:01:09;-11650.84;;;-142.29;97.92
7748;BME280;3918;42.564;23.164;2024-03-08T15:03:38;-11650.84;;;-142.29;100.00
7748;BME280;3918;42.564;23.164;2024-03-08T15:06:05;-11650.84;;;-142.29;100.00
7748;BME280;3918;42.564;23.164;2024-03-08T15:08:34;-11650.84;;;-142.29;100.00
7748;BME280;3918;42.564;23.164;2024-03-08T15:11:01;-11650.84;;;-142.29;100.00
7748;BME280;3918;42.564;23.164;2024-03-08T15:13:29;-11650.84;;;-142.29;100.00
7748;BME280;3918;42.564;23.164;2024-03-08T15:16:05;-11650.84;;;-142.29;100.00
7748;BME280;3918;42.564;23.164;2024-03-08T15:18:34;-11650.84;;;-142.29;100.00
7748;BME280;3918;42.564;23.164;2024-03-08T15:21:05;-11650.84;;;-142.29;100.00
7748;BME280;3918;42.564;23.164;2024-03-08T15:23:34;-11650.84;;;-142.29;100.00
7748;BME280;3918;42.564;23.164;2024-03-08T15:26:01;-11650.84;;;-142.29;100.00
7748;BME280;3918;42.564;23.164;2024-03-08T15:28:33;-11650.84;;;-142.29;100.00
7748;BME280;3918;42.564;23.164;2024-03-08T15:31:03;-11650.84;;;-142.29;100.00
7748;BME280;3918;42.564;23.164;2024-03-08T15:33:32;-11650.84;;;-142.29;100.00
7748;BME280;3918;42.564;23.164;2024-03-08T15:35:59;-11650.84;;;-142.29;100.00
7748;BME280;3918;42.564;23.164;2024-03-08T15:38:33;-11650.84;;;-142.29;100.00
7748;BME280;3918;42.564;23.164;2024-03-08T15:40:59;-11650.84;;;-142.29;100.00
7748;BME280;3918;42.564;23.164;2024-03-08T15:43:27;-11650.84;;;-142.29;100.00
7748;BME280;3918;42.564;23.164;2024-03-08T15:45:55;-11650.84;;;-142.29;100.00
7748;BME280;3918;42.564;23.164;2024-03-08T15:48:23;-11650.84;;;-142.29;100.00
7748;BME280;3918;42.564;23.164;2024-03-08T15:50:50;-11650.84;;;-142.29;100.00
7748;BME280;3918;42.564;23.164;2024-03-08T15:53:17;-11650.84;;;-142.29;100.00
7748;BME280;3918;42.564;23.164;2024-03-08T15:55:44;-11650.84;;;-142.29;100.00
7748;BME280;3918;42.564;23.164;2024-03-08T15:58:12;-11650.84;;;-142.29;100.00
7748;BME280;3918;42.564;23.164;2024-03-08T16:00:38;-11650.84;;;-142.29;100.00
7748;BME280;3918;42.564;23.164;2024-03-08T16:03:13;-11650.84;;;-142.29;100.00
7748;BME280;3918;42.564;23.164;2024-03-08T16:05:41;-11650.84;;;-142.29;100.00
7748;BME280;3918;42.564;23.164;2024-03-08T16:08:09;-11650.84;;;-142.29;100.00
7748;BME280;3918;42.564;23.164;2024-03-08T16:10:41;-11650.84;;;-142.29;100.00
7748;BME280;3918;42.564;23.164;2024-03-08T16:13:11;-11650.84;;;-142.29;100.00
7748;BME280;3918;42.564;23.164;2024-03-08T16:15:38;-11650.84;;;-142.29;100.00
7748;BME280;3918;42.564;23.164;2024-03-08T16:18:06;-11650.84;;;-142.29;100.00
7748;BME280;3918;42.564;23.164;2024-03-08T16:20:35;-11650.84;;;-142.29;100.00
7748;BME280;3918;42.564;23.164;2024-03-08T16:23:02;-11650.84;;;-142.29;100.00
7748;BME280;3918;42.564;23.164;2024-03-08T16:25:29;-11650.84;;;-142.29;100.00
7748;BME280;3918;42.564;23.164;2024-03-08T16:27:56;-11650.84;;;-142.29;100.00
7748;BME280;3918;42.564;23.164;2024-03-08T16:30:23;-11650.84;;;-142.29;100.00
7748;BME280;3918;42.564;23.164;2024-03-08T16:32:52;-11650.84;;;-142.29;100.00
7748;BME280;3918;42.564;23.164;2024-03-08T16:35:18;-11650.84;;;-142.29;100.00
7748;BME280;3918;42.564;23.164;2024-03-08T16:37:47;-11650.84;;;-142.29;100.00
7748;BME280;3918;42.564;23.164;2024-03-08T16:40:15;-11650.84;;;-142.29;100.00
7748;BME280;3918;42.564;23.164;2024-03-08T16:42:43;-11650.84;;;-142.29;100.00
7748;BME280;3918;42.564;23.164;2024-03-08T16:45:11;-11650.84;;;-142.29;100.00
7748;BME280;3918;42.564;23.164;2024-03-08T16:47:38;-11650.84;;;-142.29;100.00
7748;BME280;3918;42.564;23.164;2024-03-08T16:50:06;-11650.84;;;-142.29;100.00
7748;BME280;3918;42.564;23.164;2024-03-08T16:52:33;-11650.84;;;-142.29;100.00
7748;BME280;3918;42.564;23.164;2024-03-08T16:55:02;-11650.84;;;-142.29;100.00
7748;BME280;3918;42.564;23.164;2024-03-08T16:57:31;-11650.84;;;-142.29;100.00
7748;BME280;3918;42.564;23.164;2024-03-08T16:59:58;-11650.84;;;-142.29;100.00
7748;BME280;3918;42.564;23.164;2024-03-08T17:02:25;-11650.84;;;-142.29;100.00
7748;BME280;3918;42.564;23.164;2024-03-08T17:04:51;-11650.84;;;-142.29;100.00
7748;BME280;3918;42.564;23.164;2024-03-08T17:07:19;-11650.84;;;-142.29;100.00
7748;BME280;3918;42.564;23.164;2024-03-08T17:09:47;-11650.84;;;-142.29;100.00
7748;BME280;3918;42.564;23.164;2024-03-08T17:12:15;-11650.84;;;-142.29;100.00
7748;BME280;3918;42.564;23.164;2024-03-08T17:14:44;-11650.84;;;-142.29;100.00
7748;BME280;3918;42.564;23.164;2024-03-08T17:17:11;-11650.84;;;-142.29;100.00
7748;BME280;3918;42.564;23.164;2024-03-08T17:19:39;-11650.84;;;-142.29;100.00
7748;BME280;3918;42.564;23.164;2024-03-08T17:22:06;-11650.84;;;-142.29;100.00
7748;BME280;3918;42.564;23.164;2024-03-08T17:24:33;-11650.84;;;-142.29;100.00
7748;BME280;3918;42.564;23.164;2024-03-08T17:27:00;-11650.84;;;-142.29;100.00
7748;BME280;3918;42.564;23.164;2024-03-08T17:29:28;-11650.84;;;-142.29;100.00
7748;BME280;3918;42.564;23.164;2024-03-08T17:31:55;-11650.84;;;-142.29;100.00
7748;BME280;3918;42.564;23.164;2024-03-08T17:34:24;-11650.84;;;-142.29;100.00
7748;BME280;3918;42.564;23.164;2024-03-08T17:36:53;-11650.84;;;-142.29;100.00
7748;BME280;3918;42.564;23.164;2024-03-08T17:39:23;-11650.84;;;-142.29;100.00
7748;BME280;3918;42.564;23.164;2024-03-08T17:41:54;-11650.84;;;-142.29;100.00